sensor_id;sensor_type;location;lat;lon;timestamp;P1;durP1;ratioP1;P2;durP2;ratioP2
21979;SDS011;11154;48.558;9.234;2023-05-07T00:01:24;3.28;;;2.10;;
21979;SDS011;11154;48.558;9.234;2023-05-07T00:03:26;5.55;;;2.10;;
21979;SDS011;11154;48.558;9.234;2023-05-07T00:05:28;3.10;;;2.22;;
21979;SDS011;11154;48.558;9.234;2023-05-07T00:07:30;3.10;;;2.17;;
21979;SDS011;11154;48.558;9.234;2023-05-07T00:09:32;3.58;;;2.40;;
21979;SDS011;11154;48.558;9.234;2023-05-07T00:11:35;4.45;;;2.70;;
21979;SDS011;11154;48.558;9.234;2023-05-07T00:13:36;2.75;;;2.22;;
21979;SDS011;11154;48.558;9.234;2023-05-07T00:15:38;3.15;;;2.50;;
21979;SDS011;11154;48.558;9.234;2023-05-07T00:17:40;3.55;;;2.40;;
21979;SDS011;11154;48.558;9.234;2023-05-07T00:19:41;5.68;;;2.70;;
21979;SDS011;11154;48.558;9.234;2023-05-07T00:21:43;5.50;;;2.63;;
21979;SDS011;11154;48.558;9.234;2023-05-07T00:23:45;3.97;;;2.63;;
21979;SDS011;11154;48.558;9.234;2023-05-07T00:25:46;5.72;;;2.83;;
21979;SDS011;11154;48.558;9.234;2023-05-07T00:27:49;5.25;;;2.20;;
21979;SDS011;11154;48.558;9.234;2023-05-07T00:29:51;4.65;;;2.55;;
21979;SDS011;11154;48.558;9.234;2023-05-07T00:31:53;3.80;;;2.20;;
21979;SDS011;11154;48.558;9.234;2023-05-07T00:33:55;5.55;;;2.40;;
21979;SDS011;11154;48.558;9.234;2023-05-07T00:35:56;2.50;;;1.90;;
21979;SDS011;11154;48.558;9.234;2023-05-07T00:37:58;3.05;;;2.45;;
21979;SDS011;11154;48.558;9.234;2023-05-07T00:40:00;4.90;;;2.30;;
21979;SDS011;11154;48.558;9.234;2023-05-07T00:42:04;3.30;;;2.13;;
21979;SDS011;11154;48.558;9.234;2023-05-07T00:44:08;4.20;;;2.65;;
21979;SDS011;11154;48.558;9.234;2023-05-07T00:46:10;3.13;;;2.08;;
21979;SDS011;11154;48.558;9.234;2023-05-07T00:48:11;4.60;;;2.33;;
21979;SDS011;11154;48.558;9.234;2023-05-07T00:50:14;3.85;;;2.20;;
21979;SDS011;11154;48.558;9.234;2023-05-07T00:52:17;4.50;;;2.50;;
21979;SDS011;11154;48.558;9.234;2023-05-07T00:54:21;2.97;;;2.45;;
21979;SDS011;11154;48.558;9.234;2023-05-07T00:56:23;5.57;;;2.55;;
21979;SDS011;11154;48.558;9.234;2023-05-07T00:58:25;6.63;;;2.72;;
21979;SDS011;11154;48.558;9.234;2023-05-07T01:00:28;7.78;;;3.03;;
21979;SDS011;11154;48.558;9.234;2023-05-07T01:02:30;4.68;;;2.60;;
21979;SDS011;11154;48.558;9.234;2023-05-07T01:04:31;4.45;;;3.08;;
21979;SDS011;11154;48.558;9.234;2023-05-07T01:06:33;5.10;;;2.95;;
21979;SDS011;11154;48.558;9.234;2023-05-07T01:08:35;3.72;;;2.45;;
21979;SDS011;11154;48.558;9.234;2023-05-07T01:10:39;4.20;;;2.80;;
21979;SDS011;11154;48.558;9.234;2023-05-07T01:12:43;6.25;;;2.65;;
21979;SDS011;11154;48.558;9.234;2023-05-07T01:14:47;4.25;;;2.58;;
21979;SDS011;11154;48.558;9.234;2023-05-07T01:16:51;3.60;;;2.65;;
21979;SDS011;11154;48.558;9.234;2023-05-07T01:18:53;3.88;;;2.20;;
21979;SDS011;11154;48.558;9.234;2023-05-07T01:20:55;4.28;;;2.63;;
21979;SDS011;11154;48.558;9.234;2023-05-07T01:22:59;4.57;;;2.50;;
21979;SDS011;11154;48.558;9.234;2023-05-07T01:25:02;6.38;;;2.80;;
21979;SDS011;11154;48.558;9.234;2023-05-07T01:27:04;2.63;;;2.30;;
21979;SDS011;11154;48.558;9.234;2023-05-07T01:29:06;3.17;;;2.10;;
21979;SDS011;11154;48.558;9.234;2023-05-07T01:31:08;3.35;;;2.55;;
21979;SDS011;11154;48.558;9.234;2023-05-07T01:33:11;4.78;;;2.40;;
21979;SDS011;11154;48.558;9.234;2023-05-07T01:35:18;4.15;;;2.42;;
21979;SDS011;11154;48.558;9.234;2023-05-07T01:37:20;5.38;;;2.33;;
21979;SDS011;11154;48.558;9.234;2023-05-07T01:39:25;5.75;;;2.40;;
21979;SDS011;11154;48.558;9.234;2023-05-07T01:41:27;6.00;;;2.70;;
21979;SDS011;11154;48.558;9.234;2023-05-07T01:43:29;2.83;;;2.20;;
21979;SDS011;11154;48.558;9.234;2023-05-07T01:45:31;4.18;;;2.80;;
21979;SDS011;11154;48.558;9.234;2023-05-07T01:47:35;4.38;;;2.70;;
21979;SDS011;11154;48.558;9.234;2023-05-07T01:49:38;3.65;;;2.42;;
21979;SDS011;11154;48.558;9.234;2023-05-07T01:51:40;4.97;;;2.83;;
21979;SDS011;11154;48.558;9.234;2023-05-07T01:53:42;4.55;;;2.33;;
21979;SDS011;11154;48.558;9.234;2023-05-07T01:55:47;3.75;;;2.47;;
21979;SDS011;11154;48.558;9.234;2023-05-07T01:57:48;3.05;;;2.00;;
21979;SDS011;11154;48.558;9.234;2023-05-07T01:59:50;3.38;;;2.17;;
21979;SDS011;11154;48.558;9.234;2023-05-07T02:01:52;3.72;;;2.30;;
21979;SDS011;11154;48.558;9.234;2023-05-07T02:03:53;4.32;;;2.30;;
21979;SDS011;11154;48.558;9.234;2023-05-07T02:05:55;5.28;;;2.63;;
21979;SDS011;11154;48.558;9.234;2023-05-07T02:07:56;6.05;;;3.15;;
21979;SDS011;11154;48.558;9.234;2023-05-07T02:09:58;4.03;;;2.33;;
21979;SDS011;11154;48.558;9.234;2023-05-07T02:12:01;3.97;;;2.10;;
21979;SDS011;11154;48.558;9.234;2023-05-07T02:14:03;10.10;;;2.53;;
21979;SDS011;11154;48.558;9.234;2023-05-07T02:16:04;5.28;;;2.50;;
21979;SDS011;11154;48.558;9.234;2023-05-07T02:18:07;3.70;;;2.08;;
21979;SDS011;11154;48.558;9.234;2023-05-07T02:20:10;4.05;;;2.22;;
21979;SDS011;11154;48.558;9.234;2023-05-07T02:22:13;8.00;;;1.92;;
21979;SDS011;11154;48.558;9.234;2023-05-07T02:24:15;4.82;;;2.10;;
21979;SDS011;11154;48.558;9.234;2023-05-07T02:26:17;3.83;;;2.03;;
21979;SDS011;11154;48.558;9.234;2023-05-07T02:28:20;3.80;;;2.10;;
21979;SDS011;11154;48.558;9.234;2023-05-07T02:30:22;3.90;;;2.10;;
21979;SDS011;11154;48.558;9.234;2023-05-07T02:32:25;6.97;;;2.70;;
21979;SDS011;11154;48.558;9.234;2023-05-07T02:34:26;2.83;;;2.13;;
21979;SDS011;11154;48.558;9.234;2023-05-07T02:36:28;4.53;;;2.20;;
21979;SDS011;11154;48.558;9.234;2023-05-07T02:38:29;4.55;;;2.25;;
21979;SDS011;11154;48.558;9.234;2023-05-07T02:40:31;2.30;;;2.08;;
21979;SDS011;11154;48.558;9.234;2023-05-07T02:42:34;3.53;;;2.03;;
21979;SDS011;11154;48.558;9.234;2023-05-07T02:44:37;2.70;;;2.20;;
21979;SDS011;11154;48.558;9.234;2023-05-07T02:46:39;2.85;;;2.03;;
21979;SDS011;11154;48.558;9.234;2023-05-07T02:48:41;2.10;;;1.90;;
21979;SDS011;11154;48.558;9.234;2023-05-07T02:50:43;2.80;;;1.70;;
21979;SDS011;11154;48.558;9.234;2023-05-07T02:52:43;3.58;;;2.22;;
21979;SDS011;11154;48.558;9.234;2023-05-07T02:54:45;4.35;;;2.17;;
21979;SDS011;11154;48.558;9.234;2023-05-07T02:56:46;4.72;;;2.20;;
21979;SDS011;11154;48.558;9.234;2023-05-07T02:58:48;3.42;;;2.00;;
21979;SDS011;11154;48.558;9.234;2023-05-07T03:00:51;3.80;;;2.20;;
21979;SDS011;11154;48.558;9.234;2023-05-07T03:02:54;3.08;;;1.90;;
21979;SDS011;11154;48.558;9.234;2023-05-07T03:04:56;2.28;;;1.92;;
21979;SDS011;11154;48.558;9.234;2023-05-07T03:07:00;3.17;;;1.90;;
21979;SDS011;11154;48.558;9.234;2023-05-07T03:09:02;3.42;;;2.15;;
21979;SDS011;11154;48.558;9.234;2023-05-07T03:11:03;4.50;;;2.20;;
21979;SDS011;11154;48.558;9.234;2023-05-07T03:13:05;3.70;;;2.08;;
21979;SDS011;11154;48.558;9.234;2023-05-07T03:15:07;4.70;;;2.35;;
21979;SDS011;11154;48.558;9.234;2023-05-07T03:17:11;2.78;;;1.90;;
21979;SDS011;11154;48.558;9.234;2023-05-07T03:19:13;2.95;;;1.67;;
21979;SDS011;11154;48.558;9.234;2023-05-07T03:21:15;3.63;;;2.17;;
21979;SDS011;11154;48.558;9.234;2023-05-07T03:23:16;4.13;;;2.20;;
21979;SDS011;11154;48.558;9.234;2023-05-07T03:25:18;5.75;;;2.40;;
21979;SDS011;11154;48.558;9.234;2023-05-07T03:27:20;3.10;;;2.20;;
21979;SDS011;11154;48.558;9.234;2023-05-07T03:29:21;8.93;;;3.85;;
21979;SDS011;11154;48.558;9.234;2023-05-07T03:31:23;5.18;;;2.65;;
21979;SDS011;11154;48.558;9.234;2023-05-07T03:33:26;2.70;;;2.38;;
21979;SDS011;11154;48.558;9.234;2023-05-07T03:35:28;4.40;;;2.30;;
21979;SDS011;11154;48.558;9.234;2023-05-07T03:37:30;5.60;;;2.67;;
21979;SDS011;11154;48.558;9.234;2023-05-07T03:39:31;7.00;;;2.47;;
21979;SDS011;11154;48.558;9.234;2023-05-07T03:41:33;3.78;;;2.80;;
21979;SDS011;11154;48.558;9.234;2023-05-07T03:43:35;2.92;;;2.38;;
21979;SDS011;11154;48.558;9.234;2023-05-07T03:45:37;3.25;;;2.70;;
21979;SDS011;11154;48.558;9.234;2023-05-07T03:47:38;5.00;;;3.08;;
21979;SDS011;11154;48.558;9.234;2023-05-07T03:49:41;6.45;;;3.35;;
21979;SDS011;11154;48.558;9.234;2023-05-07T03:51:43;5.85;;;3.22;;
21979;SDS011;11154;48.558;9.234;2023-05-07T03:53:45;5.50;;;2.88;;
21979;SDS011;11154;48.558;9.234;2023-05-07T03:55:46;2.60;;;2.35;;
21979;SDS011;11154;48.558;9.234;2023-05-07T03:57:48;3.22;;;2.50;;
21979;SDS011;11154;48.558;9.234;2023-05-07T03:59:50;3.47;;;2.35;;
21979;SDS011;11154;48.558;9.234;2023-05-07T04:01:52;7.07;;;2.20;;
21979;SDS011;11154;48.558;9.234;2023-05-07T04:03:53;2.90;;;2.13;;
21979;SDS011;11154;48.558;9.234;2023-05-07T04:05:56;3.30;;;2.00;;
21979;SDS011;11154;48.558;9.234;2023-05-07T04:07:58;2.45;;;2.10;;
21979;SDS011;11154;48.558;9.234;2023-05-07T04:10:00;4.03;;;2.22;;
21979;SDS011;11154;48.558;9.234;2023-05-07T04:12:02;2.90;;;2.22;;
21979;SDS011;11154;48.558;9.234;2023-05-07T04:14:04;2.75;;;1.90;;
21979;SDS011;11154;48.558;9.234;2023-05-07T04:16:06;2.22;;;1.70;;
21979;SDS011;11154;48.558;9.234;2023-05-07T04:18:07;2.92;;;1.83;;
21979;SDS011;11154;48.558;9.234;2023-05-07T04:20:10;2.10;;;1.90;;
21979;SDS011;11154;48.558;9.234;2023-05-07T04:22:17;2.97;;;1.77;;
21979;SDS011;11154;48.558;9.234;2023-05-07T04:24:19;3.35;;;2.22;;
21979;SDS011;11154;48.558;9.234;2023-05-07T04:26:20;5.07;;;2.25;;
21979;SDS011;11154;48.558;9.234;2023-05-07T04:28:23;3.95;;;1.98;;
21979;SDS011;11154;48.558;9.234;2023-05-07T04:30:25;4.38;;;1.83;;
21979;SDS011;11154;48.558;9.234;2023-05-07T04:32:27;3.20;;;2.10;;
21979;SDS011;11154;48.558;9.234;2023-05-07T04:34:29;5.25;;;2.13;;
21979;SDS011;11154;48.558;9.234;2023-05-07T04:36:31;2.20;;;2.00;;
21979;SDS011;11154;48.558;9.234;2023-05-07T04:38:35;2.58;;;1.92;;
21979;SDS011;11154;48.558;9.234;2023-05-07T04:40:36;2.50;;;2.10;;
21979;SDS011;11154;48.558;9.234;2023-05-07T04:42:38;2.22;;;2.03;;
21979;SDS011;11154;48.558;9.234;2023-05-07T04:44:40;3.15;;;2.15;;
21979;SDS011;11154;48.558;9.234;2023-05-07T04:46:42;5.40;;;3.53;;
21979;SDS011;11154;48.558;9.234;2023-05-07T04:48:44;5.75;;;3.30;;
21979;SDS011;11154;48.558;9.234;2023-05-07T04:50:47;4.38;;;3.00;;
21979;SDS011;11154;48.558;9.234;2023-05-07T04:52:49;3.97;;;2.42;;
21979;SDS011;11154;48.558;9.234;2023-05-07T04:54:52;2.85;;;2.50;;
21979;SDS011;11154;48.558;9.234;2023-05-07T04:56:53;2.90;;;2.30;;
21979;SDS011;11154;48.558;9.234;2023-05-07T04:58:55;4.22;;;2.53;;
21979;SDS011;11154;48.558;9.234;2023-05-07T05:00:57;4.28;;;2.47;;
21979;SDS011;11154;48.558;9.234;2023-05-07T05:02:58;3.70;;;2.10;;
21979;SDS011;11154;48.558;9.234;2023-05-07T05:05:00;4.93;;;2.40;;
21979;SDS011;11154;48.558;9.234;2023-05-07T05:07:02;6.30;;;2.40;;
21979;SDS011;11154;48.558;9.234;2023-05-07T05:09:05;3.63;;;2.05;;
21979;SDS011;11154;48.558;9.234;2023-05-07T05:11:08;7.38;;;2.88;;
21979;SDS011;11154;48.558;9.234;2023-05-07T05:13:10;2.50;;;2.13;;
21979;SDS011;11154;48.558;9.234;2023-05-07T05:15:12;3.05;;;2.40;;
21979;SDS011;11154;48.558;9.234;2023-05-07T05:17:14;3.65;;;2.15;;
21979;SDS011;11154;48.558;9.234;2023-05-07T05:19:16;3.97;;;2.08;;
21979;SDS011;11154;48.558;9.234;2023-05-07T05:21:17;6.97;;;3.17;;
21979;SDS011;11154;48.558;9.234;2023-05-07T05:23:19;2.92;;;2.55;;
21979;SDS011;11154;48.558;9.234;2023-05-07T05:25:21;3.45;;;2.45;;
21979;SDS011;11154;48.558;9.234;2023-05-07T05:27:24;3.65;;;2.50;;
21979;SDS011;11154;48.558;9.234;2023-05-07T05:29:25;3.15;;;2.38;;
21979;SDS011;11154;48.558;9.234;2023-05-07T05:31:27;4.15;;;2.78;;
21979;SDS011;11154;48.558;9.234;2023-05-07T05:33:29;5.13;;;2.63;;
21979;SDS011;11154;48.558;9.234;2023-05-07T05:35:30;3.30;;;2.63;;
21979;SDS011;11154;48.558;9.234;2023-05-07T05:37:32;4.13;;;2.60;;
21979;SDS011;11154;48.558;9.234;2023-05-07T05:39:34;4.90;;;2.72;;
21979;SDS011;11154;48.558;9.234;2023-05-07T05:41:36;3.47;;;2.53;;
21979;SDS011;11154;48.558;9.234;2023-05-07T05:43:39;3.65;;;2.90;;
21979;SDS011;11154;48.558;9.234;2023-05-07T05:45:40;4.63;;;2.88;;
21979;SDS011;11154;48.558;9.234;2023-05-07T05:47:42;3.10;;;2.70;;
21979;SDS011;11154;48.558;9.234;2023-05-07T05:49:43;4.97;;;3.00;;
21979;SDS011;11154;48.558;9.234;2023-05-07T05:51:45;4.00;;;2.85;;
21979;SDS011;11154;48.558;9.234;2023-05-07T05:53:47;4.53;;;2.83;;
21979;SDS011;11154;48.558;9.234;2023-05-07T05:55:49;2.90;;;2.60;;
21979;SDS011;11154;48.558;9.234;2023-05-07T05:57:51;4.25;;;2.78;;
21979;SDS011;11154;48.558;9.234;2023-05-07T05:59:54;3.65;;;2.60;;
21979;SDS011;11154;48.558;9.234;2023-05-07T06:01:56;4.07;;;3.05;;
21979;SDS011;11154;48.558;9.234;2023-05-07T06:03:58;3.85;;;2.90;;
21979;SDS011;11154;48.558;9.234;2023-05-07T06:05:59;3.63;;;3.13;;
21979;SDS011;11154;48.558;9.234;2023-05-07T06:08:01;3.80;;;3.03;;
21979;SDS011;11154;48.558;9.234;2023-05-07T06:10:03;6.85;;;3.15;;
21979;SDS011;11154;48.558;9.234;2023-05-07T06:12:06;3.50;;;3.08;;
21979;SDS011;11154;48.558;9.234;2023-05-07T06:14:08;5.70;;;3.10;;
21979;SDS011;11154;48.558;9.234;2023-05-07T06:16:11;8.15;;;3.33;;
21979;SDS011;11154;48.558;9.234;2023-05-07T06:18:12;5.88;;;3.17;;
21979;SDS011;11154;48.558;9.234;2023-05-07T06:20:14;6.22;;;3.67;;
21979;SDS011;11154;48.558;9.234;2023-05-07T06:22:16;3.13;;;2.60;;
21979;SDS011;11154;48.558;9.234;2023-05-07T06:24:17;5.57;;;3.00;;
21979;SDS011;11154;48.558;9.234;2023-05-07T06:26:19;3.28;;;2.90;;
21979;SDS011;11154;48.558;9.234;2023-05-07T06:28:20;3.80;;;2.97;;
21979;SDS011;11154;48.558;9.234;2023-05-07T06:30:22;3.58;;;2.92;;
21979;SDS011;11154;48.558;9.234;2023-05-07T06:32:25;4.57;;;3.08;;
21979;SDS011;11154;48.558;9.234;2023-05-07T06:34:27;3.78;;;2.92;;
21979;SDS011;11154;48.558;9.234;2023-05-07T06:36:29;7.65;;;3.60;;
21979;SDS011;11154;48.558;9.234;2023-05-07T06:38:30;4.63;;;3.15;;
21979;SDS011;11154;48.558;9.234;2023-05-07T06:40:32;4.10;;;3.17;;
21979;SDS011;11154;48.558;9.234;2023-05-07T06:42:35;4.88;;;3.40;;
21979;SDS011;11154;48.558;9.234;2023-05-07T06:44:36;3.45;;;3.15;;
21979;SDS011;11154;48.558;9.234;2023-05-07T06:46:38;5.32;;;3.10;;
21979;SDS011;11154;48.558;9.234;2023-05-07T06:48:41;4.07;;;3.00;;
21979;SDS011;11154;48.558;9.234;2023-05-07T06:50:43;3.05;;;2.67;;
21979;SDS011;11154;48.558;9.234;2023-05-07T06:52:45;3.95;;;2.90;;
21979;SDS011;11154;48.558;9.234;2023-05-07T06:54:47;4.80;;;3.35;;
21979;SDS011;11154;48.558;9.234;2023-05-07T06:56:48;4.75;;;3.13;;
21979;SDS011;11154;48.558;9.234;2023-05-07T06:58:50;3.50;;;2.90;;
21979;SDS011;11154;48.558;9.234;2023-05-07T07:00:52;3.95;;;3.00;;
21979;SDS011;11154;48.558;9.234;2023-05-07T07:02:54;4.22;;;3.00;;
21979;SDS011;11154;48.558;9.234;2023-05-07T07:04:57;4.90;;;2.97;;
21979;SDS011;11154;48.558;9.234;2023-05-07T07:06:58;3.92;;;3.05;;
21979;SDS011;11154;48.558;9.234;2023-05-07T07:09:00;3.88;;;2.97;;
21979;SDS011;11154;48.558;9.234;2023-05-07T07:11:02;8.20;;;5.20;;
21979;SDS011;11154;48.558;9.234;2023-05-07T07:13:03;4.63;;;4.00;;
21979;SDS011;11154;48.558;9.234;2023-05-07T07:15:06;4.30;;;3.30;;
21979;SDS011;11154;48.558;9.234;2023-05-07T07:17:08;4.15;;;3.20;;
21979;SDS011;11154;48.558;9.234;2023-05-07T07:19:10;5.82;;;2.80;;
21979;SDS011;11154;48.558;9.234;2023-05-07T07:21:13;4.15;;;3.50;;
21979;SDS011;11154;48.558;9.234;2023-05-07T07:23:14;7.05;;;3.38;;
21979;SDS011;11154;48.558;9.234;2023-05-07T07:25:16;3.85;;;2.75;;
21979;SDS011;11154;48.558;9.234;2023-05-07T07:27:17;5.13;;;2.92;;
21979;SDS011;11154;48.558;9.234;2023-05-07T07:29:19;4.68;;;2.60;;
21979;SDS011;11154;48.558;9.234;2023-05-07T07:31:21;3.47;;;3.03;;
21979;SDS011;11154;48.558;9.234;2023-05-07T07:33:22;4.10;;;3.00;;
21979;SDS011;11154;48.558;9.234;2023-05-07T07:35:24;4.22;;;2.95;;
21979;SDS011;11154;48.558;9.234;2023-05-07T07:37:28;5.03;;;3.45;;
21979;SDS011;11154;48.558;9.234;2023-05-07T07:39:29;4.30;;;2.85;;
21979;SDS011;11154;48.558;9.234;2023-05-07T07:41:31;3.33;;;2.70;;
21979;SDS011;11154;48.558;9.234;2023-05-07T07:43:33;4.93;;;2.70;;
21979;SDS011;11154;48.558;9.234;2023-05-07T07:45:35;5.93;;;3.00;;
21979;SDS011;11154;48.558;9.234;2023-05-07T07:47:37;4.85;;;2.90;;
21979;SDS011;11154;48.558;9.234;2023-05-07T07:49:39;3.03;;;2.72;;
21979;SDS011;11154;48.558;9.234;2023-05-07T07:51:40;4.53;;;2.70;;
21979;SDS011;11154;48.558;9.234;2023-05-07T07:53:43;4.30;;;2.75;;
21979;SDS011;11154;48.558;9.234;2023-05-07T07:55:45;3.10;;;2.70;;
21979;SDS011;11154;48.558;9.234;2023-05-07T07:57:47;3.90;;;2.50;;
21979;SDS011;11154;48.558;9.234;2023-05-07T07:59:48;4.88;;;2.78;;
21979;SDS011;11154;48.558;9.234;2023-05-07T08:01:50;4.40;;;2.60;;
21979;SDS011;11154;48.558;9.234;2023-05-07T08:03:55;3.65;;;2.42;;
21979;SDS011;11154;48.558;9.234;2023-05-07T08:05:58;2.95;;;2.60;;
21979;SDS011;11154;48.558;9.234;2023-05-07T08:08:00;2.85;;;2.45;;
21979;SDS011;11154;48.558;9.234;2023-05-07T08:10:03;5.32;;;2.40;;
21979;SDS011;11154;48.558;9.234;2023-05-07T08:12:05;3.10;;;2.40;;
21979;SDS011;11154;48.558;9.234;2023-05-07T08:14:07;4.18;;;2.53;;
21979;SDS011;11154;48.558;9.234;2023-05-07T08:16:09;3.67;;;2.58;;
21979;SDS011;11154;48.558;9.234;2023-05-07T08:18:10;3.38;;;2.35;;
21979;SDS011;11154;48.558;9.234;2023-05-07T08:20:13;4.13;;;2.50;;
21979;SDS011;11154;48.558;9.234;2023-05-07T08:22:15;3.65;;;2.65;;
21979;SDS011;11154;48.558;9.234;2023-05-07T08:24:18;4.10;;;2.50;;
21979;SDS011;11154;48.558;9.234;2023-05-07T08:26:21;4.28;;;2.65;;
21979;SDS011;11154;48.558;9.234;2023-05-07T08:28:23;3.72;;;2.70;;
21979;SDS011;11154;48.558;9.234;2023-05-07T08:30:25;3.60;;;2.47;;
21979;SDS011;11154;48.558;9.234;2023-05-07T08:32:26;2.58;;;2.10;;
21979;SDS011;11154;48.558;9.234;2023-05-07T08:34:28;4.78;;;2.42;;
21979;SDS011;11154;48.558;9.234;2023-05-07T08:36:30;3.08;;;2.30;;
21979;SDS011;11154;48.558;9.234;2023-05-07T08:38:32;4.53;;;2.28;;
21979;SDS011;11154;48.558;9.234;2023-05-07T08:40:34;3.72;;;2.25;;
21979;SDS011;11154;48.558;9.234;2023-05-07T08:42:40;3.13;;;2.13;;
21979;SDS011;11154;48.558;9.234;2023-05-07T08:44:43;4.22;;;2.35;;
21979;SDS011;11154;48.558;9.234;2023-05-07T08:46:46;2.55;;;2.35;;
21979;SDS011;11154;48.558;9.234;2023-05-07T08:48:51;3.20;;;2.30;;
21979;SDS011;11154;48.558;9.234;2023-05-07T08:50:53;3.05;;;2.35;;
21979;SDS011;11154;48.558;9.234;2023-05-07T08:52:55;2.63;;;2.13;;
21979;SDS011;11154;48.558;9.234;2023-05-07T08:54:57;4.22;;;2.40;;
21979;SDS011;11154;48.558;9.234;2023-05-07T08:57:00;3.15;;;2.20;;
21979;SDS011;11154;48.558;9.234;2023-05-07T08:59:04;3.85;;;2.05;;
21979;SDS011;11154;48.558;9.234;2023-05-07T09:01:07;2.42;;;1.92;;
21979;SDS011;11154;48.558;9.234;2023-05-07T09:03:10;2.88;;;2.13;;
21979;SDS011;11154;48.558;9.234;2023-05-07T09:05:12;2.95;;;2.20;;
21979;SDS011;11154;48.558;9.234;2023-05-07T09:07:14;3.38;;;2.10;;
21979;SDS011;11154;48.558;9.234;2023-05-07T09:09:16;2.83;;;1.85;;
21979;SDS011;11154;48.558;9.234;2023-05-07T09:11:21;5.40;;;2.50;;
21979;SDS011;11154;48.558;9.234;2023-05-07T09:13:24;3.78;;;2.00;;
21979;SDS011;11154;48.558;9.234;2023-05-07T09:15:27;2.92;;;1.90;;
21979;SDS011;11154;48.558;9.234;2023-05-07T09:17:29;5.13;;;2.00;;
21979;SDS011;11154;48.558;9.234;2023-05-07T09:19:31;2.53;;;2.10;;
21979;SDS011;11154;48.558;9.234;2023-05-07T09:21:32;3.45;;;1.80;;
21979;SDS011;11154;48.558;9.234;2023-05-07T09:23:34;2.47;;;2.13;;
21979;SDS011;11154;48.558;9.234;2023-05-07T09:25:36;5.93;;;2.30;;
21979;SDS011;11154;48.558;9.234;2023-05-07T09:27:38;2.42;;;2.00;;
21979;SDS011;11154;48.558;9.234;2023-05-07T09:29:39;4.88;;;2.03;;
21979;SDS011;11154;48.558;9.234;2023-05-07T09:31:42;5.13;;;2.40;;
21979;SDS011;11154;48.558;9.234;2023-05-07T09:33:44;2.75;;;2.20;;
21979;SDS011;11154;48.558;9.234;2023-05-07T09:35:46;4.00;;;2.33;;
21979;SDS011;11154;48.558;9.234;2023-05-07T09:37:49;2.38;;;1.80;;
21979;SDS011;11154;48.558;9.234;2023-05-07T09:39:51;3.95;;;2.00;;
21979;SDS011;11154;48.558;9.234;2023-05-07T09:41:53;2.35;;;1.80;;
21979;SDS011;11154;48.558;9.234;2023-05-07T09:43:55;2.50;;;1.60;;
21979;SDS011;11154;48.558;9.234;2023-05-07T09:45:57;2.40;;;1.70;;
21979;SDS011;11154;48.558;9.234;2023-05-07T09:48:00;5.00;;;1.60;;
21979;SDS011;11154;48.558;9.234;2023-05-07T09:50:05;2.28;;;1.60;;
21979;SDS011;11154;48.558;9.234;2023-05-07T09:52:11;2.33;;;1.30;;
21979;SDS011;11154;48.558;9.234;2023-05-07T09:54:15;1.30;;;1.10;;
21979;SDS011;11154;48.558;9.234;2023-05-07T09:56:17;3.25;;;1.40;;
21979;SDS011;11154;48.558;9.234;2023-05-07T09:58:20;1.70;;;1.20;;
21979;SDS011;11154;48.558;9.234;2023-05-07T10:00:23;3.28;;;1.38;;
21979;SDS011;11154;48.558;9.234;2023-05-07T10:02:26;2.38;;;1.20;;
21979;SDS011;11154;48.558;9.234;2023-05-07T10:04:32;2.75;;;1.20;;
21979;SDS011;11154;48.558;9.234;2023-05-07T10:06:35;3.35;;;1.45;;
21979;SDS011;11154;48.558;9.234;2023-05-07T10:08:38;2.55;;;1.60;;
21979;SDS011;11154;48.558;9.234;2023-05-07T10:10:41;7.30;;;1.45;;
21979;SDS011;11154;48.558;9.234;2023-05-07T10:12:43;2.40;;;1.50;;
21979;SDS011;11154;48.558;9.234;2023-05-07T10:14:45;1.98;;;1.13;;
21979;SDS011;11154;48.558;9.234;2023-05-07T10:16:48;1.77;;;1.30;;
21979;SDS011;11154;48.558;9.234;2023-05-07T10:18:50;4.18;;;1.40;;
21979;SDS011;11154;48.558;9.234;2023-05-07T10:20:54;2.22;;;1.55;;
21979;SDS011;11154;48.558;9.234;2023-05-07T10:23:00;2.90;;;1.52;;
21979;SDS011;11154;48.558;9.234;2023-05-07T10:25:06;3.42;;;1.30;;
21979;SDS011;11154;48.558;9.234;2023-05-07T10:27:15;2.93;;;1.60;;
21979;SDS011;11154;48.558;9.234;2023-05-07T10:29:21;2.15;;;1.45;;
21979;SDS011;11154;48.558;9.234;2023-05-07T10:31:36;1.15;;;1.05;;
21979;SDS011;11154;48.558;9.234;2023-05-07T10:33:49;1.42;;;1.33;;
21979;SDS011;11154;48.558;9.234;2023-05-07T10:35:57;1.92;;;1.48;;
21979;SDS011;11154;48.558;9.234;2023-05-07T10:38:00;2.38;;;1.27;;
21979;SDS011;11154;48.558;9.234;2023-05-07T10:40:01;3.10;;;1.45;;
21979;SDS011;11154;48.558;9.234;2023-05-07T10:42:07;3.95;;;1.23;;
21979;SDS011;11154;48.558;9.234;2023-05-07T10:44:09;2.60;;;1.45;;
21979;SDS011;11154;48.558;9.234;2023-05-07T10:46:14;2.75;;;1.23;;
21979;SDS011;11154;48.558;9.234;2023-05-07T10:48:17;3.20;;;1.27;;
21979;SDS011;11154;48.558;9.234;2023-05-07T10:50:21;1.33;;;1.10;;
21979;SDS011;11154;48.558;9.234;2023-05-07T10:52:25;1.80;;;1.20;;
21979;SDS011;11154;48.558;9.234;2023-05-07T10:54:27;2.63;;;1.05;;
21979;SDS011;11154;48.558;9.234;2023-05-07T10:56:29;1.20;;;1.10;;
21979;SDS011;11154;48.558;9.234;2023-05-07T10:58:30;2.95;;;1.23;;
21979;SDS011;11154;48.558;9.234;2023-05-07T11:00:42;1.25;;;1.00;;
21979;SDS011;11154;48.558;9.234;2023-05-07T11:05:19;1.75;;;1.17;;
21979;SDS011;11154;48.558;9.234;2023-05-07T11:07:26;1.35;;;1.25;;
21979;SDS011;11154;48.558;9.234;2023-05-07T11:12:05;1.83;;;1.15;;
21979;SDS011;11154;48.558;9.234;2023-05-07T11:14:07;2.30;;;1.38;;
21979;SDS011;11154;48.558;9.234;2023-05-07T11:16:16;2.97;;;1.20;;
21979;SDS011;11154;48.558;9.234;2023-05-07T11:18:18;1.33;;;1.23;;
21979;SDS011;11154;48.558;9.234;2023-05-07T11:20:20;1.88;;;1.40;;
21979;SDS011;11154;48.558;9.234;2023-05-07T11:22:37;2.92;;;1.35;;
21979;SDS011;11154;48.558;9.234;2023-05-07T11:24:39;3.38;;;1.55;;
21979;SDS011;11154;48.558;9.234;2023-05-07T11:26:44;4.03;;;1.30;;
21979;SDS011;11154;48.558;9.234;2023-05-07T11:28:47;3.00;;;2.30;;
21979;SDS011;11154;48.558;9.234;2023-05-07T11:30:49;4.93;;;1.45;;
21979;SDS011;11154;48.558;9.234;2023-05-07T11:32:51;4.40;;;3.28;;
21979;SDS011;11154;48.558;9.234;2023-05-07T11:34:53;1.52;;;1.20;;
21979;SDS011;11154;48.558;9.234;2023-05-07T11:36:55;1.98;;;1.48;;
21979;SDS011;11154;48.558;9.234;2023-05-07T11:38:58;4.28;;;2.38;;
21979;SDS011;11154;48.558;9.234;2023-05-07T11:41:00;2.60;;;1.30;;
21979;SDS011;11154;48.558;9.234;2023-05-07T11:43:10;4.30;;;1.92;;
21979;SDS011;11154;48.558;9.234;2023-05-07T11:45:12;3.55;;;1.30;;
21979;SDS011;11154;48.558;9.234;2023-05-07T11:47:25;4.13;;;1.52;;
21979;SDS011;11154;48.558;9.234;2023-05-07T11:49:26;2.15;;;1.33;;
21979;SDS011;11154;48.558;9.234;2023-05-07T11:51:29;2.08;;;1.40;;
21979;SDS011;11154;48.558;9.234;2023-05-07T11:53:35;3.63;;;1.90;;
21979;SDS011;11154;48.558;9.234;2023-05-07T11:55:40;2.25;;;1.33;;
21979;SDS011;11154;48.558;9.234;2023-05-07T11:57:42;1.85;;;1.30;;
21979;SDS011;11154;48.558;9.234;2023-05-07T11:59:43;2.30;;;1.50;;
21979;SDS011;11154;48.558;9.234;2023-05-07T12:01:46;2.03;;;1.20;;
21979;SDS011;11154;48.558;9.234;2023-05-07T12:03:48;2.95;;;1.45;;
21979;SDS011;11154;48.558;9.234;2023-05-07T12:05:50;2.42;;;1.50;;
21979;SDS011;11154;48.558;9.234;2023-05-07T12:07:55;2.17;;;1.45;;
21979;SDS011;11154;48.558;9.234;2023-05-07T12:09:57;2.15;;;1.10;;
21979;SDS011;11154;48.558;9.234;2023-05-07T12:12:03;3.08;;;0.90;;
21979;SDS011;11154;48.558;9.234;2023-05-07T12:14:05;1.20;;;1.00;;
21979;SDS011;11154;48.558;9.234;2023-05-07T12:16:07;1.77;;;0.85;;
21979;SDS011;11154;48.558;9.234;2023-05-07T12:18:10;1.52;;;1.00;;
21979;SDS011;11154;48.558;9.234;2023-05-07T12:20:12;1.92;;;1.17;;
21979;SDS011;11154;48.558;9.234;2023-05-07T12:22:14;1.10;;;1.00;;
21979;SDS011;11154;48.558;9.234;2023-05-07T12:24:16;1.83;;;0.82;;